Time;durP1;ratioP1;P1;durP2;ratioP2;P2;SDS_P1;SDS_P2;PMS_P1;PMS_P2;Temp;Humidity;BMP_temperature;BMP_pressure;BME280_temperature;BME280_humidity;BME280_pressure;Samples;Min_cycle;Max_cycle;Signal;HPM_P1;HPM_P2
2022/05/21 00:00:45;;;;;;;8.13;4.38;;;10.30;99.90;;;;;;5014885;28;20048;-80
2022/05/21 00:03:11;;;;;;;12.80;5.13;;;10.50;99.90;;;;;;5023769;28;20060;-79
2022/05/21 00:05:38;;;;;;;12.95;4.43;;;10.40;99.90;;;;;;5014894;28;20036;-79
2022/05/21 00:08:08;;;;;;;11.15;5.00;;;10.40;99.90;;;;;;5025885;28;20037;-79
2022/05/21 00:10:34;;;;;;;11.32;5.32;;;10.50;99.90;;;;;;5021462;28;20045;-79
2022/05/21 00:13:01;;;;;;;8.52;5.32;;;11.40;99.90;;;;;;5010186;28;20049;-79
2022/05/21 00:15:30;;;;;;;13.68;4.75;;;10.50;99.90;;;;;;5043669;28;20057;-79
2022/05/21 00:17:55;;;;;;;13.20;5.13;;;11.90;99.90;;;;;;5022091;28;20194;-77
2022/05/21 00:23:18;;;;;;;11.98;6.35;;;11.20;99.90;;;;;;5044011;28;20509;-79
2022/05/21 00:25:45;;;;;;;7.53;4.82;;;10.50;99.90;;;;;;5024082;28;20225;-79
2022/05/21 00:28:10;;;;;;;8.65;5.65;;;10.60;99.90;;;;;;5027221;28;20049;-79
2022/05/21 00:30:37;;;;;;;12.05;5.00;;;10.20;99.90;;;;;;5028380;28;20546;-80
2022/05/21 00:33:03;;;;;;;8.85;5.35;;;12.10;99.90;;;;;;5025740;28;20041;-80
2022/05/21 00:35:29;;;;;;;12.02;5.80;;;10.60;99.90;;;;;;5041278;28;20171;-80
2022/05/21 00:37:55;;;;;;;14.32;6.50;;;10.60;99.90;;;;;;5009074;28;20132;-80
2022/05/21 00:40:22;;;;;;;14.60;7.03;;;10.40;99.90;;;;;;5029658;28;20044;-79
2022/05/21 00:42:48;;;;;;;12.27;6.60;;;10.80;99.90;;;;;;5006194;28;20049;-79
2022/05/21 00:45:15;;;;;;;15.07;7.25;;;12.00;99.90;;;;;;5024289;28;20402;-79
2022/05/21 00:47:40;;;;;;;14.68;7.60;;;10.30;99.90;;;;;;5025771;28;20051;-80
2022/05/21 00:50:09;;;;;;;17.45;8.00;;;10.60;99.90;;;;;;5044383;28;20060;-81
2022/05/21 00:52:36;;;;;;;12.88;8.07;;;10.70;99.90;;;;;;5037332;28;20401;-80
2022/05/21 00:55:11;;;;;;;13.98;8.23;;;10.70;99.90;;;;;;5028142;28;20123;-80
2022/05/21 00:57:42;;;;;;;16.42;8.48;;;10.70;99.90;;;;;;5040430;28;20445;-80
2022/05/21 01:00:21;;;;;;;11.52;7.75;;;10.70;99.90;;;;;;5004004;28;20143;-80
2022/05/21 01:02:57;;;;;;;14.07;8.82;;;10.70;99.90;;;;;;5008333;28;20045;-80
2022/05/21 01:05:26;;;;;;;14.50;9.15;;;10.70;99.90;;;;;;5030703;28;20523;-80
2022/05/21 01:07:55;;;;;;;16.15;9.93;;;11.70;99.90;;;;;;5028314;28;20048;-80
2022/05/21 01:10:23;;;;;;;18.10;9.50;;;12.30;99.90;;;;;;5014380;28;20400;-79
2022/05/21 01:12:52;;;;;;;15.80;9.77;;;11.70;99.90;;;;;;5044370;28;20408;-80
2022/05/21 01:15:23;;;;;;;14.55;9.27;;;10.70;99.90;;;;;;5006943;28;20057;-80
2022/05/21 01:17:49;;;;;;;17.55;9.75;;;10.80;99.90;;;;;;5018958;28;20080;-80
2022/05/21 01:20:21;;;;;;;15.32;9.60;;;10.70;99.90;;;;;;5023806;28;20060;-80
2022/05/21 01:22:53;;;;;;;21.60;11.77;;;11.40;99.90;;;;;;5024470;28;20048;-80
2022/05/21 01:25:22;;;;;;;20.35;11.32;;;12.30;99.90;;;;;;5039894;28;20037;-78
2022/05/21 01:27:50;;;;;;;27.13;13.35;;;11.90;99.90;;;;;;5044252;28;20045;-80
2022/05/21 01:30:19;;;;;;;21.40;13.65;;;10.70;99.90;;;;;;5041415;28;20099;-80
2022/05/21 01:32:49;;;;;;;18.95;12.30;;;11.50;99.90;;;;;;5020439;28;20042;-81
2022/05/21 01:35:18;;;;;;;17.10;12.40;;;10.80;99.90;;;;;;5037383;28;20080;-81
2022/05/21 01:37:44;;;;;;;21.10;12.10;;;10.90;99.90;;;;;;5021391;28;20095;-80
2022/05/21 01:40:11;;;;;;;18.92;12.52;;;11.00;99.90;;;;;;5034053;28;20041;-80
2022/05/21 01:42:37;;;;;;;19.90;14.75;;;11.00;99.90;;;;;;5027637;28;20433;-80
2022/05/21 01:45:04;;;;;;;22.00;15.05;;;11.10;99.90;;;;;;5021437;28;20094;-79
2022/05/21 01:47:34;;;;;;;21.15;16.20;;;11.20;99.90;;;;;;5022493;28;20057;-79
2022/05/21 01:50:00;;;;;;;30.70;18.63;;;10.80;99.90;;;;;;5007007;28;20033;-80
2022/05/21 01:52:27;;;;;;;36.17;20.40;;;11.20;99.90;;;;;;5041983;28;20052;-79
2022/05/21 01:54:53;;;;;;;28.67;19.17;;;12.10;99.90;;;;;;5019817;28;20041;-78
2022/05/21 01:57:19;;;;;;;31.27;19.80;;;11.00;99.90;;;;;;5045869;28;20206;-78
2022/05/21 01:59:47;;;;;;;26.08;16.35;;;11.30;99.90;;;;;;5027590;28;20041;-78
2022/05/21 02:02:12;;;;;;;30.58;18.77;;;11.30;99.90;;;;;;5043430;28;20052;-79
2022/05/21 02:04:38;;;;;;;30.55;17.67;;;11.20;99.90;;;;;;5028664;28;20114;-79
2022/05/21 02:07:04;;;;;;;28.58;19.92;;;11.40;99.90;;;;;;5041820;28;20127;-79
2022/05/21 02:09:30;;;;;;;25.65;16.20;;;11.40;99.90;;;;;;4999877;28;20038;-79
2022/05/21 02:11:55;;;;;;;35.33;19.55;;;11.50;99.90;;;;;;5037580;28;20086;-77
2022/05/21 02:14:21;;;;;;;36.33;21.27;;;11.50;99.90;;;;;;5038670;28;20049;-78
2022/05/21 02:16:47;;;;;;;34.75;18.67;;;12.70;99.90;;;;;;5034460;28;20092;-79
2022/05/21 02:19:15;;;;;;;28.50;19.00;;;11.60;99.90;;;;;;5036045;28;20081;-77
2022/05/21 02:21:41;;;;;;;29.77;18.50;;;11.60;99.90;;;;;;5022362;28;20099;-79
2022/05/21 02:24:08;;;;;;;26.83;17.23;;;13.10;99.90;;;;;;5006100;28;20041;-79
2022/05/21 02:26:39;;;;;;;28.63;18.40;;;11.80;99.90;;;;;;5036975;28;20539;-78
2022/05/21 02:29:06;;;;;;;28.65;18.13;;;11.70;99.90;;;;;;5039333;28;20056;-78
2022/05/21 02:31:32;;;;;;;33.05;19.65;;;11.80;99.90;;;;;;5014585;28;20060;-78
2022/05/21 02:33:58;;;;;;;35.60;18.30;;;11.80;99.90;;;;;;4998151;28;20088;-79
2022/05/21 02:39:25;;;;;;;25.20;17.52;;;11.90;99.90;;;;;;5039332;28;20458;-78
2022/05/21 02:41:54;;;;;;;34.03;16.85;;;12.00;99.90;;;;;;5034225;28;20501;-78
2022/05/21 02:44:20;;;;;;;34.75;15.07;;;12.10;99.90;;;;;;5004934;28;20385;-77
2022/05/21 02:46:45;;;;;;;25.60;12.98;;;12.30;99.90;;;;;;5026779;28;20057;-77
2022/05/21 02:49:11;;;;;;;26.73;12.00;;;12.10;99.90;;;;;;5016489;28;20064;-77
2022/05/21 02:51:37;;;;;;;35.75;14.13;;;12.10;99.90;;;;;;5022137;28;20053;-81
2022/05/21 02:54:03;;;;;;;24.77;10.40;;;12.20;99.90;;;;;;5027764;28;20488;-78
2022/05/21 02:56:29;;;;;;;28.08;9.65;;;12.20;99.90;;;;;;5016010;28;20525;-78
2022/05/21 02:58:54;;;;;;;25.88;8.15;;;12.20;99.90;;;;;;5023553;28;20076;-78
2022/05/21 03:01:20;;;;;;;22.30;6.05;;;12.30;99.90;;;;;;5037182;28;20041;-77
2022/05/21 03:03:45;;;;;;;21.63;5.82;;;12.30;99.90;;;;;;5018917;28;20049;-78
2022/05/21 03:06:11;;;;;;;24.58;6.40;;;12.40;99.90;;;;;;5037823;28;21013;-79
2022/05/21 03:11:20;;;;;;;24.58;6.30;;;12.20;99.90;;;;;;5039238;28;20042;-79
2022/05/21 03:13:46;;;;;;;29.30;5.82;;;12.50;99.90;;;;;;5021060;28;20043;-77
2022/05/21 03:16:12;;;;;;;24.63;5.70;;;12.50;99.90;;;;;;5021526;28;20499;-78
2022/05/21 03:18:38;;;;;;;23.83;6.05;;;12.50;99.90;;;;;;5023928;28;20562;-77
2022/05/21 03:21:03;;;;;;;18.75;6.07;;;12.40;99.90;;;;;;5029873;28;20036;-78
2022/05/21 03:23:29;;;;;;;23.27;5.63;;;12.40;99.90;;;;;;5016485;28;20045;-77
2022/05/21 03:25:54;;;;;;;23.55;6.00;;;12.40;99.90;;;;;;5024925;28;20437;-78
2022/05/21 03:28:20;;;;;;;21.63;5.07;;;13.60;99.90;;;;;;5037316;28;20053;-78
2022/05/21 03:30:47;;;;;;;27.38;5.47;;;12.90;99.90;;;;;;5006811;28;20416;-78
2022/05/21 03:33:12;;;;;;;21.17;6.00;;;12.40;99.90;;;;;;5021602;28;20084;-77
2022/05/21 03:35:41;;;;;;;23.98;5.82;;;12.40;99.90;;;;;;5030741;28;20244;-77
2022/05/21 03:38:08;;;;;;;23.83;5.50;;;13.80;99.90;;;;;;5022792;28;20051;-77
2022/05/21 03:40:33;;;;;;;24.65;5.40;;;12.50;99.90;;;;;;5011135;28;20037;-78
2022/05/21 03:42:59;;;;;;;24.05;5.07;;;12.50;99.90;;;;;;5024833;28;20056;-79
2022/05/21 03:45:26;;;;;;;25.13;5.25;;;12.50;99.90;;;;;;5026376;28;20088;-78
2022/05/21 03:47:51;;;;;;;15.85;5.32;;;12.50;99.90;;;;;;5010827;28;20045;-78
2022/05/21 03:50:21;;;;;;;21.08;5.80;;;12.50;99.90;;;;;;5025310;28;20079;-80
2022/05/21 03:52:46;;;;;;;20.25;5.03;;;13.80;99.90;;;;;;5029371;28;20044;-78
2022/05/21 03:55:12;;;;;;;21.60;5.32;;;12.60;99.90;;;;;;5031327;28;20044;-79
2022/05/21 03:57:38;;;;;;;18.17;4.10;;;12.70;99.90;;;;;;5030556;28;20044;-78
2022/05/21 04:00:07;;;;;;;18.17;4.80;;;12.10;99.90;;;;;;5045811;28;20385;-78
2022/05/21 04:02:32;;;;;;;15.15;4.10;;;12.70;99.90;;;;;;5011571;28;20140;-80
2022/05/21 04:04:59;;;;;;;21.73;3.85;;;12.80;99.90;;;;;;5029599;28;20033;-79
2022/05/21 04:07:24;;;;;;;19.73;3.92;;;12.80;99.90;;;;;;5044990;28;20085;-79
2022/05/21 04:09:50;;;;;;;15.30;3.92;;;12.80;99.90;;;;;;5045979;28;20068;-78
2022/05/21 04:12:16;;;;;;;14.93;3.42;;;12.80;99.90;;;;;;5025405;28;20080;-79
2022/05/21 04:14:41;;;;;;;15.02;3.15;;;12.90;99.90;;;;;;5029731;28;20477;-80
2022/05/21 04:17:13;;;;;;;21.80;3.75;;;12.70;99.90;;;;;;5044151;28;20477;-80
2022/05/21 04:19:39;;;;;;;16.45;4.00;;;13.20;99.90;;;;;;5024502;28;20102;-79
2022/05/21 04:22:05;;;;;;;11.63;3.35;;;12.60;99.90;;;;;;5028209;28;20045;-79
2022/05/21 04:24:31;;;;;;;20.73;3.97;;;12.70;99.90;;;;;;5040646;28;20040;-79
2022/05/21 04:26:56;;;;;;;18.17;3.47;;;12.90;99.90;;;;;;5043522;28;20045;-78
2022/05/21 04:29:22;;;;;;;15.45;3.22;;;12.80;99.90;;;;;;5042172;28;20044;-79
2022/05/21 04:31:48;;;;;;;13.15;2.80;;;13.30;99.90;;;;;;5026224;28;20037;-80
2022/05/21 04:34:14;;;;;;;14.90;3.22;;;12.90;99.90;;;;;;5024732;28;20409;-79
2022/05/21 04:36:39;;;;;;;18.20;3.38;;;12.80;99.90;;;;;;5038150;28;20037;-79
2022/05/21 04:39:06;;;;;;;15.20;3.05;;;13.70;99.90;;;;;;5007232;28;20131;-79
2022/05/21 04:41:32;;;;;;;16.23;3.00;;;12.80;99.90;;;;;;5029081;28;20072;-79
2022/05/21 04:43:58;;;;;;;13.75;3.38;;;12.80;99.90;;;;;;5038943;28;20032;-79
2022/05/21 04:46:24;;;;;;;17.95;3.15;;;12.80;99.90;;;;;;5006124;28;20067;-80
2022/05/21 04:48:50;;;;;;;19.73;4.20;;;12.80;99.90;;;;;;5026461;28;20059;-79
2022/05/21 04:51:16;;;;;;;17.00;3.35;;;12.80;99.90;;;;;;5041545;28;20708;-79
2022/05/21 04:53:42;;;;;;;14.93;3.15;;;12.70;99.90;;;;;;5040246;28;20045;-80
2022/05/21 04:56:08;;;;;;;15.30;2.67;;;13.20;99.90;;;;;;5026002;28;20102;-79
2022/05/21 04:58:34;;;;;;;10.85;2.85;;;12.60;99.90;;;;;;5026139;28;20435;-79
2022/05/21 05:01:04;;;;;;;9.25;2.60;;;12.70;99.90;;;;;;5025126;28;20041;-79
2022/05/21 05:03:30;;;;;;;15.70;3.13;;;12.80;99.90;;;;;;5042196;28;20037;-78
2022/05/21 05:05:56;;;;;;;12.00;2.40;;;12.80;99.90;;;;;;5023925;28;20522;-80
2022/05/21 05:08:22;;;;;;;11.80;2.22;;;12.80;99.90;;;;;;5024085;28;20508;-81
2022/05/21 05:10:48;;;;;;;11.05;2.70;;;12.90;99.90;;;;;;5024329;28;20048;-81
2022/05/21 05:13:15;;;;;;;11.48;2.50;;;12.90;99.90;;;;;;5020631;28;20056;-81
2022/05/21 05:15:44;;;;;;;10.38;2.58;;;12.90;99.90;;;;;;5003433;28;20412;-80
2022/05/21 05:18:12;;;;;;;13.98;2.55;;;12.90;99.90;;;;;;5042454;28;20102;-79
2022/05/21 05:20:38;;;;;;;10.80;1.95;;;13.00;99.90;;;;;;5008180;28;21567;-80
2022/05/21 05:23:05;;;;;;;17.60;3.20;;;14.30;99.90;;;;;;5023768;28;20041;-79
2022/05/21 05:25:31;;;;;;;17.00;2.80;;;13.00;99.90;;;;;;5023502;28;20552;-80
2022/05/21 05:27:57;;;;;;;13.50;2.67;;;13.80;99.90;;;;;;5021449;28;20073;-80
2022/05/21 05:30:23;;;;;;;16.25;3.60;;;13.00;99.90;;;;;;5045447;28;20076;-80
2022/05/21 05:32:49;;;;;;;14.00;2.95;;;13.10;99.90;;;;;;5021245;28;20120;-81
2022/05/21 05:35:16;;;;;;;18.42;3.65;;;13.00;99.90;;;;;;5008746;28;20593;-81
2022/05/21 05:37:42;;;;;;;18.75;3.33;;;13.00;99.90;;;;;;5018974;28;20044;-80
2022/05/21 05:40:13;;;;;;;13.65;2.17;;;13.00;99.90;;;;;;5028738;28;20053;-80
2022/05/21 05:42:39;;;;;;;14.18;2.40;;;13.10;99.90;;;;;;5019711;28;20375;-80
2022/05/21 05:45:07;;;;;;;12.43;2.50;;;13.10;99.90;;;;;;5027657;28;20029;-81
2022/05/21 05:47:33;;;;;;;12.95;2.20;;;13.00;99.90;;;;;;5009952;28;20243;-80
2022/05/21 05:49:59;;;;;;;13.95;2.65;;;13.00;99.90;;;;;;5011911;28;20458;-80
2022/05/21 05:52:26;;;;;;;10.52;3.42;;;13.10;99.90;;;;;;5021889;28;20234;-81
2022/05/21 05:54:51;;;;;;;17.98;2.33;;;13.10;99.90;;;;;;5009955;28;20136;-79
2022/05/21 05:57:17;;;;;;;15.63;2.13;;;13.20;99.90;;;;;;5019243;28;20131;-80
2022/05/21 05:59:50;;;;;;;11.88;2.72;;;13.20;99.90;;;;;;5038414;28;20033;-80
2022/05/21 06:05:09;;;;;;;20.63;3.13;;;13.20;99.90;;;;;;5025460;28;20159;-81
2022/05/21 06:07:42;;;;;;;13.93;4.63;;;13.20;99.90;;;;;;5024495;28;20302;-80
2022/05/21 06:10:08;;;;;;;11.95;2.80;;;14.20;99.90;;;;;;5040591;28;20532;-79
2022/05/21 06:12:33;;;;;;;14.38;2.70;;;13.30;99.90;;;;;;5026607;28;20045;-79
2022/05/21 06:14:59;;;;;;;14.18;2.80;;;13.30;99.90;;;;;;5026933;28;20402;-78
2022/05/21 06:17:25;;;;;;;12.93;3.13;;;13.40;99.90;;;;;;5012669;28;20493;-78
2022/05/21 06:19:52;;;;;;;17.70;3.33;;;13.30;99.90;;;;;;5004353;28;20046;-79
2022/05/21 06:22:18;;;;;;;15.68;2.70;;;13.30;99.90;;;;;;4988567;28;20037;-79
2022/05/21 06:24:45;;;;;;;11.38;2.30;;;14.30;99.90;;;;;;5014106;28;20498;-79
2022/05/21 06:27:11;;;;;;;15.38;2.63;;;13.30;99.90;;;;;;5006377;28;20034;-78
2022/05/21 06:29:36;;;;;;;12.80;2.38;;;13.40;99.90;;;;;;4995568;28;20259;-79
2022/05/21 06:32:07;;;;;;;13.55;2.40;;;13.50;99.90;;;;;;5015481;28;20042;-79
2022/05/21 06:34:34;;;;;;;17.23;3.28;;;13.50;99.90;;;;;;4981098;28;20076;-80
2022/05/21 06:37:09;;;;;;;13.27;2.50;;;14.40;99.90;;;;;;5000178;28;20413;-81
2022/05/21 06:39:36;;;;;;;18.50;4.50;;;13.50;99.90;;;;;;5002149;28;20050;-81
2022/05/21 06:42:03;;;;;;;20.17;7.88;;;13.50;99.90;;;;;;5016883;28;20115;-81
2022/05/21 06:44:29;;;;;;;13.05;2.80;;;13.60;99.90;;;;;;4992576;28;20494;-86
2022/05/21 06:46:56;;;;;;;15.02;2.60;;;13.60;99.90;;;;;;5007681;28;20046;-84
2022/05/21 06:49:22;;;;;;;14.93;2.55;;;13.70;99.90;;;;;;4992073;28;20046;-85
2022/05/21 06:51:52;;;;;;;14.05;2.42;;;13.70;99.90;;;;;;5006083;28;20053;-84
2022/05/21 06:54:18;;;;;;;9.73;2.00;;;13.80;99.90;;;;;;5010028;28;20042;-80
2022/05/21 06:56:44;;;;;;;10.80;2.42;;;15.20;99.90;;;;;;4991816;28;20045;-83
2022/05/21 06:59:10;;;;;;;11.30;3.25;;;13.80;99.90;;;;;;5006099;28;20398;-82
2022/05/21 07:01:36;;;;;;;17.70;2.65;;;13.80;99.90;;;;;;4997699;28;20065;-83
2022/05/21 07:04:02;;;;;;;11.25;2.22;;;13.90;99.90;;;;;;5003506;28;20070;-85
2022/05/21 07:09:25;;;;;;;13.73;2.47;;;13.90;99.90;;;;;;4990037;28;20200;-80
2022/05/21 07:11:51;;;;;;;11.57;2.25;;;13.90;99.90;;;;;;4997992;28;20043;-81
2022/05/21 07:14:17;;;;;;;21.63;4.10;;;14.00;99.90;;;;;;5000089;28;20046;-83
2022/05/21 07:16:44;;;;;;;14.32;2.50;;;13.90;99.90;;;;;;4319461;28;10000843;-80
2022/05/21 07:19:10;;;;;;;14.70;2.05;;;14.00;99.90;;;;;;5014195;28;20361;-81
2022/05/21 07:21:36;;;;;;;10.73;2.60;;;14.00;99.90;;;;;;4986218;28;20100;-80
2022/05/21 07:24:02;;;;;;;11.80;2.08;;;14.00;99.90;;;;;;5017127;28;20124;-83
2022/05/21 07:26:28;;;;;;;11.82;2.72;;;14.10;99.90;;;;;;5013732;28;20408;-81
2022/05/21 07:28:54;;;;;;;10.15;2.75;;;14.10;99.90;;;;;;5001721;28;20038;-82
2022/05/21 07:31:19;;;;;;;13.73;3.08;;;14.10;99.90;;;;;;4986430;28;20125;-84
2022/05/21 07:33:45;;;;;;;9.82;2.30;;;14.10;99.90;;;;;;5001064;28;20105;-78
2022/05/21 07:36:11;;;;;;;11.05;2.03;;;14.00;99.90;;;;;;5022222;28;20042;-81
2022/05/21 07:38:37;;;;;;;13.30;2.08;;;14.10;99.90;;;;;;5006783;28;20512;-78
2022/05/21 07:41:03;;;;;;;10.80;2.17;;;14.10;99.90;;;;;;4999325;28;20057;-81
2022/05/21 07:43:30;;;;;;;10.35;2.42;;;14.20;99.90;;;;;;5019611;28;20037;-84
2022/05/21 07:46:00;;;;;;;10.88;2.78;;;14.20;99.90;;;;;;5001191;28;20044;-81
2022/05/21 07:48:27;;;;;;;14.00;2.17;;;14.20;99.90;;;;;;4999468;28;20144;-84
2022/05/21 07:50:55;;;;;;;16.33;2.00;;;14.30;99.90;;;;;;4999759;28;20446;-86
2022/05/21 07:53:27;;;;;;;11.50;2.13;;;15.10;99.90;;;;;;5006491;28;20046;-79
2022/05/21 07:55:53;;;;;;;12.68;2.75;;;14.40;99.90;;;;;;5000787;28;20152;-78
2022/05/21 07:58:20;;;;;;;14.27;3.05;;;15.60;99.90;;;;;;5014553;28;20045;-78
2022/05/21 08:00:47;;;;;;;19.60;2.60;;;14.40;99.90;;;;;;5004517;28;20041;-87
2022/05/21 08:03:14;;;;;;;18.08;2.90;;;14.50;99.90;;;;;;4998066;28;20049;-77
2022/05/21 08:05:41;;;;;;;14.98;2.55;;;14.80;99.90;;;;;;4997230;28;20072;-79
2022/05/21 08:08:10;;;;;;;11.05;2.60;;;14.40;99.90;;;;;;4998907;28;20041;-83
2022/05/21 08:10:37;;;;;;;18.02;2.75;;;14.50;99.90;;;;;;4999688;28;20582;-81
2022/05/21 08:13:02;;;;;;;8.32;2.15;;;14.40;99.90;;;;;;4982074;28;20490;-78
2022/05/21 08:15:29;;;;;;;13.60;3.15;;;14.50;99.90;;;;;;5003858;28;20053;-80
2022/05/21 08:17:54;;;;;;;13.88;1.80;;;14.50;99.90;;;;;;5003766;28;20523;-80
2022/05/21 08:20:21;;;;;;;11.55;2.85;;;14.60;99.90;;;;;;5040785;28;20041;-78
2022/05/21 08:28:16;;;;;;;10.32;2.63;;;14.80;99.90;;;;;;5023944;28;20040;-81
2022/05/21 08:30:44;;;;;;;12.73;1.90;;;14.80;99.90;;;;;;5020027;28;20049;-81
2022/05/21 08:33:10;;;;;;;12.48;2.03;;;14.90;99.90;;;;;;5033946;28;20805;-81
2022/05/21 08:35:40;;;;;;;8.63;2.03;;;14.90;99.90;;;;;;5039763;28;20037;-79
2022/05/21 08:38:06;;;;;;;13.70;1.88;;;14.90;99.90;;;;;;5007154;28;20613;-79
2022/05/21 08:41:09;;;;;;;10.00;2.00;;;15.00;99.90;;;;;;5021285;28;20781;-78
2022/05/21 08:43:43;;;;;;;7.93;1.45;;;15.10;99.90;;;;;;5010560;28;20060;-79
2022/05/21 08:46:23;;;;;;;11.27;2.17;;;15.10;99.90;;;;;;5035545;28;20155;-78
2022/05/21 08:48:59;;;;;;;14.88;2.80;;;15.00;99.90;;;;;;5037443;28;20685;-78
2022/05/21 08:51:30;;;;;;;14.75;2.47;;;15.10;99.90;;;;;;5013114;28;20484;-77
2022/05/21 08:53:56;;;;;;;8.65;2.08;;;15.00;99.90;;;;;;5024141;28;20052;-79
2022/05/21 08:56:24;;;;;;;9.25;1.40;;;15.00;99.90;;;;;;5025489;28;20495;-81
2022/05/21 08:58:57;;;;;;;12.63;2.25;;;15.00;99.90;;;;;;5042549;28;20075;-81
2022/05/21 09:01:25;;;;;;;13.65;5.40;;;15.00;99.90;;;;;;5022920;28;20111;-78
2022/05/21 09:03:53;;;;;;;10.35;1.85;;;15.40;99.90;;;;;;5040903;28;20055;-78
2022/05/21 09:06:19;;;;;;;10.27;1.70;;;15.10;99.90;;;;;;5004624;28;20559;-74
2022/05/21 09:08:44;;;;;;;10.85;1.90;;;15.10;99.90;;;;;;5017223;28;20040;-76
2022/05/21 09:11:15;;;;;;;10.55;1.85;;;16.00;99.90;;;;;;5038426;28;20056;-78
2022/05/21 09:14:01;;;;;;;12.10;2.25;;;16.00;99.90;;;;;;5025505;28;20083;-77
2022/05/21 09:19:11;;;;;;;;;;;15.20;99.90;;;;;;5022934;28;20118;-76
2022/05/21 09:21:48;;;;;;;10.27;1.65;;;15.20;99.90;;;;;;5025568;28;20007;-76
2022/05/21 09:24:34;;;;;;;11.02;1.45;;;16.10;99.90;;;;;;5021593;28;20045;-76
2022/05/21 09:27:01;;;;;;;12.02;1.83;;;15.10;99.90;;;;;;5040213;28;20094;-79
2022/05/21 09:29:33;;;;;;;9.48;1.60;;;15.10;99.90;;;;;;5026906;28;20048;-75
2022/05/21 09:32:15;;;;;;;12.38;1.80;;;15.10;99.90;;;;;;5001121;28;20041;-78
2022/05/21 09:34:40;;;;;;;12.80;2.03;;;15.10;99.90;;;;;;5022737;28;20049;-77
2022/05/21 09:37:17;;;;;;;8.05;1.83;;;16.40;99.90;;;;;;5022397;28;20802;-81
2022/05/21 09:39:43;;;;;;;8.48;1.85;;;15.20;99.90;;;;;;5025677;28;20067;-81
2022/05/21 09:45:27;;;;;;;15.65;4.75;;;15.10;99.90;;;;;;5023003;28;20515;-78
2022/05/21 09:48:03;;;;;;;7.95;2.20;;;15.10;99.90;;;;;;5040767;28;20040;-78
2022/05/21 09:50:30;;;;;;;12.93;1.70;;;15.10;99.90;;;;;;5034379;28;20135;-80
2022/05/21 09:52:56;;;;;;;7.75;1.88;;;15.00;99.90;;;;;;5040007;28;20048;-80
2022/05/21 09:55:21;;;;;;;15.85;2.25;;;15.10;99.90;;;;;;5000149;28;20037;-79
2022/05/21 09:57:47;;;;;;;13.77;2.15;;;15.20;99.90;;;;;;5022745;28;20128;-77
2022/05/21 10:00:21;;;;;;;14.88;3.53;;;15.40;99.90;;;;;;5020743;28;20029;-79
2022/05/21 10:02:55;;;;;;;4.73;1.30;;;15.40;99.90;;;;;;5023970;28;20077;-78
2022/05/21 10:05:28;;;;;;;14.20;1.70;;;15.40;99.90;;;;;;5024041;28;20042;-80
2022/05/21 10:11:00;;;;;;;;;;;15.50;99.90;;;;;;5025322;28;20060;-79
2022/05/21 10:13:32;;;;;;;8.82;1.23;;;15.50;99.90;;;;;;5026873;28;19991;-79
2022/05/21 10:16:28;;;;;;;10.88;2.60;;;15.50;99.90;;;;;;5036735;28;20106;-78
2022/05/21 10:19:09;;;;;;;10.43;1.63;;;15.50;99.90;;;;;;5009573;28;20036;-78
2022/05/21 10:21:41;;;;;;;10.13;1.75;;;15.70;99.90;;;;;;5017415;28;20044;-77
2022/05/21 10:24:13;;;;;;;5.57;1.08;;;15.70;99.90;;;;;;5019680;28;20045;-78
2022/05/21 10:27:20;;;;;;;6.85;1.30;;;15.70;99.90;;;;;;5043835;28;20451;-77
2022/05/21 10:29:58;;;;;;;12.98;1.95;;;15.80;99.90;;;;;;5023669;28;20050;-78
2022/05/21 10:32:26;;;;;;;10.02;1.58;;;15.70;99.90;;;;;;5020713;28;20833;-79
2022/05/21 10:35:01;;;;;;;12.10;2.30;;;15.80;99.90;;;;;;5020917;28;20063;-75
2022/05/21 10:37:37;;;;;;;10.05;1.83;;;15.80;99.90;;;;;;5036610;28;20700;-78
2022/05/21 10:40:22;;;;;;;13.80;2.25;;;15.80;99.90;;;;;;5021466;28;20052;-79
2022/05/21 10:43:04;;;;;;;7.88;1.58;;;15.90;99.90;;;;;;5022362;28;20063;-78
2022/05/21 10:45:39;;;;;;;6.25;1.98;;;15.90;99.90;;;;;;5024765;28;20564;-78
2022/05/21 10:48:35;;;;;;;6.97;1.17;;;15.90;99.90;;;;;;5021471;28;20080;-78
2022/05/21 10:51:16;;;;;;;9.82;2.00;;;16.00;99.90;;;;;;5037248;28;20087;-82
2022/05/21 10:53:59;;;;;;;9.30;2.00;;;15.90;99.90;;;;;;5042732;28;20059;-82
2022/05/21 10:56:44;;;;;;;8.80;1.23;;;16.00;99.90;;;;;;5040266;28;20054;-81
2022/05/21 10:59:35;;;;;;;11.25;1.92;;;16.00;99.90;;;;;;5026272;28;20063;-77
2022/05/21 11:02:43;;;;;;;8.77;1.42;;;15.90;99.90;;;;;;5040242;28;20057;-80
2022/05/21 11:05:18;;;;;;;12.68;1.38;;;15.90;99.90;;;;;;5020364;28;20508;-79
2022/05/21 11:08:12;;;;;;;9.05;1.70;;;16.10;99.90;;;;;;5021505;28;20118;-82
2022/05/21 11:10:46;;;;;;;9.48;1.88;;;16.30;99.90;;;;;;5025200;28;20131;-79
2022/05/21 11:13:16;;;;;;;11.93;1.55;;;16.50;99.90;;;;;;5038023;28;20053;-77
2022/05/21 11:15:56;;;;;;;9.80;1.88;;;16.60;99.90;;;;;;5017950;28;20795;-78
2022/05/21 11:18:46;;;;;;;12.18;1.90;;;16.80;99.90;;;;;;5017111;28;20053;-77
2022/05/21 11:21:17;;;;;;;8.57;1.73;;;16.70;99.90;;;;;;5026117;28;20048;-73
2022/05/21 11:24:05;;;;;;;7.60;1.55;;;16.50;99.90;;;;;;5015003;28;20124;-81
2022/05/21 11:26:46;;;;;;;8.95;1.80;;;16.40;99.90;;;;;;5038763;28;20099;-76
2022/05/21 11:29:41;;;;;;;9.63;1.48;;;16.40;99.90;;;;;;5022182;28;20045;-80
2022/05/21 11:37:54;;;;;;;7.13;1.63;;;16.80;99.90;;;;;;5048223;28;20060;-78
2022/05/21 11:40:52;;;;;;;11.80;1.92;;;16.70;99.90;;;;;;5020648;28;20396;-78
2022/05/21 11:43:19;;;;;;;8.07;1.55;;;16.60;99.90;;;;;;5009279;28;20057;-78
2022/05/21 11:46:06;;;;;;;13.55;1.92;;;16.50;99.90;;;;;;5043054;28;20120;-79
2022/05/21 11:48:31;;;;;;;6.53;1.75;;;16.50;99.90;;;;;;5022718;28;20049;-77
2022/05/21 11:51:17;;;;;;;10.98;2.00;;;16.50;99.90;;;;;;5037584;28;20034;-76
2022/05/21 11:53:45;;;;;;;9.35;1.20;;;16.70;99.90;;;;;;5011913;28;20501;-76
2022/05/21 11:56:12;;;;;;;6.78;1.67;;;17.00;99.90;;;;;;5006171;28;20083;-77
2022/05/21 11:58:50;;;;;;;6.90;1.75;;;17.80;99.90;;;;;;5040349;28;20067;-77
2022/05/21 12:01:34;;;;;;;10.57;2.05;;;17.40;99.90;;;;;;5046029;28;20080;-78
2022/05/21 12:04:00;;;;;;;;;;;17.40;99.90;;;;;;5022200;28;20041;-76
2022/05/21 12:06:32;;;;;;;11.63;2.35;;;17.40;99.90;;;;;;5042142;28;20340;-76
2022/05/21 12:09:21;;;;;;;12.18;1.77;;;17.20;99.90;;;;;;5035400;28;20057;-74
2022/05/21 12:11:47;;;;;;;9.10;1.77;;;17.20;99.90;;;;;;5040811;28;20100;-76
2022/05/21 12:14:52;;;;;;;7.05;1.25;;;16.90;99.90;;;;;;5024109;28;20554;-76
2022/05/21 12:17:44;;;;;;;6.93;1.80;;;16.80;99.90;;;;;;5024193;28;20054;-76
2022/05/21 12:20:13;;;;;;;14.82;2.10;;;16.90;99.90;;;;;;5012153;28;20140;-74
2022/05/21 12:22:44;;;;;;;6.50;1.48;;;17.20;99.90;;;;;;5012217;28;20103;-75
2022/05/21 12:25:32;;;;;;;8.07;2.05;;;16.70;99.90;;;;;;5022406;28;20443;-76
2022/05/21 12:28:02;;;;;;;14.00;2.25;;;16.70;99.90;;;;;;5019400;28;20125;-77
2022/05/21 12:30:29;;;;;;;8.07;1.67;;;16.70;99.90;;;;;;5017337;28;20235;-77
2022/05/21 12:32:56;;;;;;;8.85;2.20;;;16.70;99.90;;;;;;5023985;28;20492;-79
2022/05/21 12:35:25;;;;;;;6.63;1.30;;;16.80;99.90;;;;;;5023331;28;20087;-79
2022/05/21 12:38:08;;;;;;;5.25;1.15;;;16.90;99.90;;;;;;5023289;28;20176;-78
2022/05/21 12:40:41;;;;;;;6.60;1.70;;;17.00;99.90;;;;;;5020736;28;20539;-77
2022/05/21 12:43:12;;;;;;;6.78;1.45;;;17.20;99.90;;;;;;5002007;28;20466;-77
2022/05/21 12:45:45;;;;;;;9.40;2.03;;;17.50;99.90;;;;;;5022012;28;20091;-77
2022/05/21 12:48:27;;;;;;;6.88;1.00;;;17.60;99.90;;;;;;5021298;28;20041;-76
2022/05/21 12:50:56;;;;;;;7.18;0.93;;;17.50;99.90;;;;;;5022455;28;20038;-77
2022/05/21 12:53:28;;;;;;;8.98;1.20;;;18.10;99.90;;;;;;5009437;28;20056;-77
2022/05/21 12:56:05;;;;;;;5.07;1.00;;;17.60;99.90;;;;;;5000699;28;20120;-80
2022/05/21 12:58:31;;;;;;;7.70;1.50;;;17.60;99.90;;;;;;5006504;28;20124;-76
2022/05/21 13:00:59;;;;;;;7.45;0.95;;;17.90;99.90;;;;;;5022890;28;20137;-77
2022/05/21 13:03:30;;;;;;;6.22;0.50;;;17.90;99.90;;;;;;5017710;28;20059;-75
2022/05/21 13:06:03;;;;;;;4.28;1.02;;;17.90;99.90;;;;;;5038993;28;20132;-75
2022/05/21 13:08:30;;;;;;;7.20;1.30;;;17.90;99.90;;;;;;5020655;28;20133;-74
2022/05/21 13:11:20;;;;;;;8.60;2.97;;;17.90;99.90;;;;;;5024304;28;20714;-77
2022/05/21 13:14:01;;;;;;;4.68;0.68;;;17.90;99.90;;;;;;5019772;28;20379;-78
2022/05/21 13:16:28;;;;;;;6.57;0.80;;;18.60;99.90;;;;;;5029076;28;20053;-77
2022/05/21 13:19:16;;;;;;;5.95;1.05;;;17.90;99.90;;;;;;5002203;28;20038;-78
2022/05/21 13:22:04;;;;;;;5.47;1.50;;;17.60;99.90;;;;;;5022854;28;20083;-78
2022/05/21 13:25:10;;;;;;;6.28;1.25;;;17.70;99.90;;;;;;5038204;28;20076;-78
2022/05/21 13:27:54;;;;;;;8.18;1.33;;;17.70;99.90;;;;;;5040490;28;20423;-78